Time;durP1;ratioP1;P1;durP2;ratioP2;P2;SDS_P1;SDS_P2;PMS_P1;PMS_P2;Temp;Humidity;BMP_temperature;BMP_pressure;BME280_temperature;BME280_humidity;BME280_pressure;Samples;Min_cycle;Max_cycle;Signal;HPM_P1;HPM_P2
2023/05/19 00:00:07;;;;;;;13.35;3.17;;;;;;;;;;5053461;28;20041;-76
2023/05/19 00:02:34;;;;;;;27.42;3.58;;;;;;;;;;5051095;28;20051;-76
2023/05/19 00:05:01;;;;;;;15.93;3.22;;;;;;;;;;5056018;28;20646;-76
2023/05/19 00:07:30;;;;;;;10.93;3.17;;;;;;;;;;5070115;28;20052;-76
2023/05/19 00:09:56;;;;;;;15.88;3.38;;;;;;;;;;5059538;28;20380;-77
2023/05/19 00:12:22;;;;;;;14.23;3.78;;;;;;;;;;5062961;28;20563;-77
2023/05/19 00:14:49;;;;;;;19.13;4.40;;;;;;;;;;5061302;28;20657;-75
2023/05/19 00:17:15;;;;;;;12.77;3.25;;;;;;;;;;5042376;28;20414;-77
2023/05/19 00:19:43;;;;;;;20.02;3.78;;;;;;;;;;5074352;28;20047;-76
2023/05/19 00:22:10;;;;;;;16.52;3.20;;;;;;;;;;5059344;28;20390;-76
2023/05/19 00:24:36;;;;;;;21.42;3.30;;;;;;;;;;5043638;28;20058;-76
2023/05/19 00:27:02;;;;;;;17.70;3.20;;;;;;;;;;5058525;28;20056;-76
2023/05/19 00:29:29;;;;;;;28.20;3.95;;;;;;;;;;5058277;28;20048;-76
2023/05/19 00:31:55;;;;;;;19.45;3.83;;;;;;;;;;5058545;28;20496;-76
2023/05/19 00:34:21;;;;;;;17.33;4.03;;;;;;;;;;5059977;28;20048;-76
2023/05/19 00:36:47;;;;;;;21.08;3.55;;;;;;;;;;5057247;28;20048;-75
2023/05/19 00:39:14;;;;;;;21.58;3.47;;;;;;;;;;5038072;28;20077;-76
2023/05/19 00:41:40;;;;;;;19.90;3.85;;;;;;;;;;5054473;28;20068;-76
2023/05/19 00:44:06;;;;;;;19.45;4.18;;;;;;;;;;5055446;28;20117;-76
2023/05/19 00:46:32;;;;;;;12.00;2.92;;;;;;;;;;5070503;28;20063;-76
2023/05/19 00:48:58;;;;;;;23.58;3.35;;;;;;;;;;5054072;28;22583;-76
2023/05/19 00:51:27;;;;;;;24.45;4.07;;;;;;;;;;5053468;28;20072;-75
2023/05/19 00:53:53;;;;;;;24.48;3.58;;;;;;;;;;5054563;28;20574;-75
2023/05/19 00:56:20;;;;;;;17.75;3.25;;;;;;;;;;5054591;28;20040;-76
2023/05/19 00:58:46;;;;;;;19.35;4.13;;;;;;;;;;5054699;28;21954;-76
2023/05/19 01:01:15;;;;;;;20.45;3.97;;;;;;;;;;5052723;28;20113;-75
2023/05/19 01:03:43;;;;;;;12.88;3.70;;;;;;;;;;5056104;28;20044;-75
2023/05/19 01:06:10;;;;;;;18.63;3.53;;;;;;;;;;5060184;28;20115;-76
2023/05/19 01:08:37;;;;;;;20.50;4.80;;;;;;;;;;5055176;28;22058;-76
2023/05/19 01:11:07;;;;;;;16.30;3.60;;;;;;;;;;5056071;28;20051;-75
2023/05/19 01:13:33;;;;;;;23.77;4.53;;;;;;;;;;5052443;28;20051;-76
2023/05/19 01:16:05;;;;;;;24.65;4.85;;;;;;;;;;5053207;28;20149;-75
2023/05/19 01:18:38;;;;;;;16.67;3.90;;;;;;;;;;5071049;28;20063;-75
2023/05/19 01:21:10;;;;;;;19.13;4.40;;;;;;;;;;5054163;28;20694;-75
2023/05/19 01:23:48;;;;;;;17.00;4.20;;;;;;;;;;5037721;28;22159;-75
2023/05/19 01:26:14;;;;;;;24.80;5.03;;;;;;;;;;5035599;28;20149;-76
2023/05/19 01:29:03;;;;;;;27.50;4.57;;;;;;;;;;5053034;28;20047;-76
2023/05/19 01:31:29;;;;;;;19.80;5.25;;;;;;;;;;5029433;28;20040;-76
2023/05/19 01:33:56;;;;;;;15.63;3.95;;;;;;;;;;5050663;28;20047;-76
2023/05/19 01:36:23;;;;;;;26.10;4.88;;;;;;;;;;5053170;28;20048;-75
2023/05/19 01:38:54;;;;;;;23.40;4.57;;;;;;;;;;5052001;28;20043;-75
2023/05/19 01:41:21;;;;;;;21.52;4.70;;;;;;;;;;5047140;28;20080;-76
2023/05/19 01:43:47;;;;;;;20.42;4.50;;;;;;;;;;5052839;28;20056;-76
2023/05/19 01:46:14;;;;;;;17.33;4.00;;;;;;;;;;5050741;28;20051;-76
2023/05/19 01:48:41;;;;;;;18.60;4.50;;;;;;;;;;5066271;28;20088;-76
2023/05/19 01:51:07;;;;;;;21.77;5.15;;;;;;;;;;5052104;28;20040;-76
2023/05/19 01:53:33;;;;;;;21.38;5.22;;;;;;;;;;5051798;28;20044;-76
2023/05/19 01:56:00;;;;;;;20.75;4.68;;;;;;;;;;5050218;28;20040;-76
2023/05/19 01:58:46;;;;;;;19.80;5.47;;;;;;;;;;5053250;28;20087;-76
2023/05/19 02:01:27;;;;;;;23.35;6.38;;;;;;;;;;5063587;28;20161;-76
2023/05/19 02:04:02;;;;;;;22.05;4.85;;;;;;;;;;5057187;28;20043;-76
2023/05/19 02:06:57;;;;;;;19.85;5.00;;;;;;;;;;5032371;28;20048;-76
2023/05/19 02:09:44;;;;;;;20.42;5.57;;;;;;;;;;5031303;28;20056;-76
2023/05/19 02:12:20;;;;;;;15.88;5.47;;;;;;;;;;5050669;28;20257;-76
2023/05/19 02:14:52;;;;;;;15.73;4.93;;;;;;;;;;5036244;28;20382;-76
2023/05/19 02:17:19;;;;;;;18.00;5.00;;;;;;;;;;5056421;28;20047;-76
2023/05/19 02:19:46;;;;;;;16.83;5.10;;;;;;;;;;5054763;28;20044;-76
2023/05/19 02:22:12;;;;;;;22.48;5.80;;;;;;;;;;5066368;28;20178;-76
2023/05/19 02:24:38;;;;;;;23.75;5.50;;;;;;;;;;5046674;28;20048;-76
2023/05/19 02:27:04;;;;;;;18.30;4.82;;;;;;;;;;5048464;28;20054;-76
2023/05/19 02:29:30;;;;;;;24.70;5.55;;;;;;;;;;5048025;28;20066;-75
2023/05/19 02:31:56;;;;;;;18.98;5.47;;;;;;;;;;5062558;28;20140;-76
2023/05/19 02:34:22;;;;;;;20.63;5.90;;;;;;;;;;5064773;28;20523;-76
2023/05/19 02:36:49;;;;;;;22.25;6.10;;;;;;;;;;5048028;28;20756;-76
2023/05/19 02:39:15;;;;;;;15.85;5.20;;;;;;;;;;5054575;28;20040;-76
2023/05/19 02:41:41;;;;;;;24.98;5.93;;;;;;;;;;5050054;28;20711;-76
2023/05/19 02:44:07;;;;;;;17.55;5.95;;;;;;;;;;5046772;28;20663;-76
2023/05/19 02:46:34;;;;;;;18.67;5.65;;;;;;;;;;5050825;28;20039;-76
2023/05/19 02:49:00;;;;;;;19.08;5.55;;;;;;;;;;5050795;28;20135;-76
2023/05/19 02:51:26;;;;;;;22.67;6.20;;;;;;;;;;5047347;28;20040;-76
2023/05/19 02:53:52;;;;;;;24.67;5.43;;;;;;;;;;5051599;28;20450;-76
2023/05/19 02:56:18;;;;;;;18.27;5.60;;;;;;;;;;5048582;28;20137;-76
2023/05/19 02:58:44;;;;;;;17.83;5.78;;;;;;;;;;5049099;28;20496;-76
2023/05/19 03:01:10;;;;;;;22.98;6.07;;;;;;;;;;5020601;28;20044;-76
2023/05/19 03:03:37;;;;;;;17.73;5.10;;;;;;;;;;5069155;27;20036;-76
2023/05/19 03:06:03;;;;;;;17.83;5.30;;;;;;;;;;5034932;28;20090;-76
2023/05/19 03:08:29;;;;;;;13.55;5.55;;;;;;;;;;5055697;28;20039;-76
2023/05/19 03:10:56;;;;;;;17.30;5.20;;;;;;;;;;5054017;28;22231;-76
2023/05/19 03:13:22;;;;;;;19.30;5.50;;;;;;;;;;5053603;28;22818;-76
2023/05/19 03:15:49;;;;;;;20.98;5.13;;;;;;;;;;5054074;28;20560;-76
2023/05/19 03:18:15;;;;;;;21.13;5.97;;;;;;;;;;5072670;27;20765;-75
2023/05/19 03:20:44;;;;;;;19.92;5.15;;;;;;;;;;5038721;28;20129;-76
2023/05/19 03:23:10;;;;;;;17.40;5.28;;;;;;;;;;5054071;28;20044;-76
2023/05/19 03:25:37;;;;;;;14.80;5.35;;;;;;;;;;5057445;28;20040;-75
2023/05/19 03:28:03;;;;;;;17.83;5.38;;;;;;;;;;5061016;28;20139;-76
2023/05/19 03:30:29;;;;;;;14.85;6.07;;;;;;;;;;5057483;28;20054;-76
2023/05/19 03:32:55;;;;;;;14.45;5.10;;;;;;;;;;5053015;28;20427;-76
2023/05/19 03:35:21;;;;;;;22.38;6.03;;;;;;;;;;5057943;28;20079;-76
2023/05/19 03:37:47;;;;;;;20.25;5.55;;;;;;;;;;5056349;28;20136;-76
2023/05/19 03:40:14;;;;;;;19.58;5.93;;;;;;;;;;5060883;28;20044;-76
2023/05/19 03:42:40;;;;;;;20.27;6.30;;;;;;;;;;5060565;28;21173;-76
2023/05/19 03:45:06;;;;;;;18.85;7.10;;;;;;;;;;5082899;28;20052;-76
2023/05/19 03:47:32;;;;;;;22.83;8.18;;;;;;;;;;5063366;28;20045;-76
2023/05/19 03:49:59;;;;;;;23.88;8.43;;;;;;;;;;5068533;28;20052;-76
2023/05/19 03:52:25;;;;;;;18.25;8.07;;;;;;;;;;5071969;28;20104;-77
2023/05/19 03:54:51;;;;;;;20.58;7.70;;;;;;;;;;5055107;28;20752;-76
2023/05/19 03:57:17;;;;;;;24.80;8.48;;;;;;;;;;5053357;28;20052;-76
2023/05/19 03:59:43;;;;;;;28.10;7.85;;;;;;;;;;5070233;28;20044;-76
2023/05/19 04:02:10;;;;;;;28.27;9.18;;;;;;;;;;5056323;28;20040;-76
2023/05/19 04:04:38;;;;;;;27.55;9.00;;;;;;;;;;5049529;28;20040;-76
2023/05/19 04:07:06;;;;;;;30.50;10.13;;;;;;;;;;5049133;28;20088;-77
2023/05/19 04:09:34;;;;;;;29.15;9.95;;;;;;;;;;5055775;28;20081;-77
2023/05/19 04:12:01;;;;;;;27.77;9.45;;;;;;;;;;5053291;28;20129;-76
2023/05/19 04:14:27;;;;;;;24.38;8.77;;;;;;;;;;5035407;28;20114;-76
2023/05/19 04:16:54;;;;;;;23.70;9.05;;;;;;;;;;5052507;28;20660;-76
2023/05/19 04:19:20;;;;;;;23.42;8.85;;;;;;;;;;5068358;28;20040;-76
2023/05/19 04:21:46;;;;;;;32.10;10.27;;;;;;;;;;5055872;28;20731;-77
2023/05/19 04:24:12;;;;;;;23.50;9.63;;;;;;;;;;5055192;28;20036;-77
2023/05/19 04:26:41;;;;;;;18.98;9.05;;;;;;;;;;5053857;28;20103;-76
2023/05/19 04:29:07;;;;;;;25.25;9.55;;;;;;;;;;5052758;28;20044;-76
2023/05/19 04:31:34;;;;;;;21.45;9.48;;;;;;;;;;5055100;28;20056;-76
2023/05/19 04:34:00;;;;;;;16.35;7.68;;;;;;;;;;5054626;28;20051;-78
2023/05/19 04:36:26;;;;;;;22.85;8.90;;;;;;;;;;5053088;28;20057;-76
2023/05/19 04:38:53;;;;;;;22.52;8.30;;;;;;;;;;5053276;28;20052;-75
2023/05/19 04:41:20;;;;;;;23.48;9.15;;;;;;;;;;5033765;28;20126;-84
2023/05/19 04:43:48;;;;;;;25.77;8.35;;;;;;;;;;5054484;28;20075;-75
2023/05/19 04:46:15;;;;;;;25.70;9.88;;;;;;;;;;5054103;28;20052;-75
2023/05/19 04:48:41;;;;;;;23.10;8.30;;;;;;;;;;5055595;28;20851;-75
2023/05/19 04:51:07;;;;;;;34.25;8.93;;;;;;;;;;5056264;28;20053;-75
2023/05/19 04:53:35;;;;;;;19.75;8.77;;;;;;;;;;5041510;28;20044;-75
2023/05/19 04:56:01;;;;;;;22.17;9.63;;;;;;;;;;5037613;28;20048;-76
2023/05/19 04:58:27;;;;;;;23.15;8.57;;;;;;;;;;5057482;28;20048;-74
2023/05/19 05:00:57;;;;;;;26.67;8.93;;;;;;;;;;5072921;28;20036;-75
2023/05/19 05:03:24;;;;;;;15.13;9.07;;;;;;;;;;5054577;28;20868;-75
2023/05/19 05:05:50;;;;;;;17.95;9.43;;;;;;;;;;5057097;28;20086;-75
2023/05/19 05:08:21;;;;;;;18.60;9.27;;;;;;;;;;5038185;28;20043;-75
2023/05/19 05:10:50;;;;;;;27.63;10.30;;;;;;;;;;5057851;28;20097;-75
2023/05/19 05:13:16;;;;;;;27.17;10.23;;;;;;;;;;5053790;28;20048;-75
2023/05/19 05:15:42;;;;;;;25.83;10.27;;;;;;;;;;5039413;28;20822;-75
2023/05/19 05:18:08;;;;;;;21.38;10.10;;;;;;;;;;5055848;28;20053;-75
2023/05/19 05:20:35;;;;;;;23.75;9.40;;;;;;;;;;5054256;28;20048;-74
2023/05/19 05:23:01;;;;;;;19.90;9.32;;;;;;;;;;5066693;28;20036;-77
2023/05/19 05:25:27;;;;;;;20.35;9.77;;;;;;;;;;5062937;28;20047;-76
2023/05/19 05:27:53;;;;;;;22.23;9.00;;;;;;;;;;5062690;28;20075;-76
2023/05/19 05:30:20;;;;;;;18.60;9.50;;;;;;;;;;5056285;28;20713;-76
2023/05/19 05:32:46;;;;;;;18.80;9.65;;;;;;;;;;5054450;28;20043;-76
2023/05/19 05:35:12;;;;;;;22.58;10.00;;;;;;;;;;5055130;28;20177;-76
2023/05/19 05:37:38;;;;;;;13.88;8.50;;;;;;;;;;5054855;28;20276;-77
2023/05/19 05:40:05;;;;;;;20.90;9.45;;;;;;;;;;5072707;28;20044;-76
2023/05/19 05:42:31;;;;;;;22.33;8.85;;;;;;;;;;5055690;28;20063;-77
2023/05/19 05:44:57;;;;;;;19.33;9.13;;;;;;;;;;5053006;28;20387;-77
2023/05/19 05:47:24;;;;;;;20.45;9.57;;;;;;;;;;5068988;27;20110;-78
2023/05/19 05:49:50;;;;;;;17.45;8.82;;;;;;;;;;5053285;28;20050;-76
2023/05/19 05:52:18;;;;;;;22.42;9.68;;;;;;;;;;5053461;28;20036;-76
2023/05/19 05:54:45;;;;;;;19.23;9.70;;;;;;;;;;5054236;28;20105;-76
2023/05/19 05:57:11;;;;;;;25.35;10.20;;;;;;;;;;5051659;28;20051;-76
2023/05/19 05:59:37;;;;;;;15.63;8.95;;;;;;;;;;5053286;28;20036;-76
2023/05/19 06:02:03;;;;;;;18.60;9.02;;;;;;;;;;5053805;28;20123;-75
2023/05/19 06:04:29;;;;;;;14.65;8.38;;;;;;;;;;5054498;28;20035;-75
2023/05/19 06:06:59;;;;;;;18.90;9.07;;;;;;;;;;5054628;28;20043;-74
2023/05/19 06:09:25;;;;;;;18.83;8.45;;;;;;;;;;5054186;28;20056;-75
2023/05/19 06:11:52;;;;;;;15.55;8.57;;;;;;;;;;5055493;28;21029;-75
2023/05/19 06:14:18;;;;;;;16.30;8.43;;;;;;;;;;5053286;28;20044;-75
2023/05/19 06:16:44;;;;;;;14.70;8.80;;;;;;;;;;5054807;28;20044;-75
2023/05/19 06:19:10;;;;;;;15.27;8.45;;;;;;;;;;5053351;28;20040;-74
2023/05/19 06:21:36;;;;;;;16.45;7.43;;;;;;;;;;5043448;28;20601;-74
2023/05/19 06:24:02;;;;;;;12.38;6.97;;;;;;;;;;5070419;28;20114;-73
2023/05/19 06:26:28;;;;;;;15.77;7.88;;;;;;;;;;5057301;28;20088;-74
2023/05/19 06:28:54;;;;;;;12.13;6.97;;;;;;;;;;5054127;28;20051;-74
2023/05/19 06:31:21;;;;;;;15.48;6.05;;;;;;;;;;5054077;28;20079;-74
2023/05/19 06:33:47;;;;;;;15.93;5.40;;;;;;;;;;5056047;28;20044;-74
2023/05/19 06:36:13;;;;;;;15.75;5.85;;;;;;;;;;5072524;28;20555;-74
2023/05/19 06:38:39;;;;;;;12.00;5.82;;;;;;;;;;5074225;28;20059;-75
2023/05/19 06:41:05;;;;;;;10.32;4.65;;;;;;;;;;5059550;28;20063;-74
2023/05/19 06:43:31;;;;;;;13.88;4.72;;;;;;;;;;5058667;28;20052;-72
2023/05/19 06:45:57;;;;;;;16.63;6.07;;;;;;;;;;5057071;28;20153;-73
2023/05/19 06:48:23;;;;;;;10.48;4.68;;;;;;;;;;5072266;28;20094;-74
2023/05/19 06:50:49;;;;;;;11.05;4.78;;;;;;;;;;5057619;28;20153;-73
2023/05/19 06:53:16;;;;;;;12.82;5.18;;;;;;;;;;5057713;28;21938;-74
2023/05/19 06:55:42;;;;;;;11.88;5.10;;;;;;;;;;5057299;28;20054;-73
2023/05/19 06:58:08;;;;;;;10.45;4.75;;;;;;;;;;5072101;28;20071;-73
2023/05/19 07:00:35;;;;;;;10.43;4.57;;;;;;;;;;5058763;28;20167;-73
2023/05/19 07:03:01;;;;;;;11.60;4.07;;;;;;;;;;5062480;28;20041;-73
2023/05/19 07:05:27;;;;;;;10.40;4.43;;;;;;;;;;5065142;28;20061;-73
2023/05/19 07:07:53;;;;;;;11.38;4.10;;;;;;;;;;5049457;28;20043;-73
2023/05/19 07:10:20;;;;;;;11.57;5.22;;;;;;;;;;5059877;28;20051;-73
2023/05/19 07:12:46;;;;;;;11.00;4.53;;;;;;;;;;5060444;28;20051;-73
2023/05/19 07:15:12;;;;;;;12.15;4.30;;;;;;;;;;5076744;27;20122;-73
2023/05/19 07:17:38;;;;;;;11.43;4.88;;;;;;;;;;5045609;28;20055;-74
2023/05/19 07:20:11;;;;;;;9.95;4.28;;;;;;;;;;5044251;28;20049;-73
2023/05/19 07:22:38;;;;;;;8.98;3.75;;;;;;;;;;5056499;28;20037;-74
2023/05/19 07:25:05;;;;;;;9.35;3.72;;;;;;;;;;5057296;28;20043;-73
2023/05/19 07:27:31;;;;;;;7.85;3.55;;;;;;;;;;5054558;28;20048;-74
2023/05/19 07:29:57;;;;;;;9.38;3.67;;;;;;;;;;5059041;28;20044;-73
2023/05/19 07:32:24;;;;;;;10.85;3.83;;;;;;;;;;5072789;28;20083;-73
2023/05/19 07:34:50;;;;;;;10.57;3.80;;;;;;;;;;5056248;28;20055;-73
2023/05/19 07:37:16;;;;;;;14.48;4.28;;;;;;;;;;5056292;28;20036;-73
2023/05/19 07:39:42;;;;;;;7.40;3.28;;;;;;;;;;5054924;28;20534;-73
2023/05/19 07:42:08;;;;;;;7.05;3.45;;;;;;;;;;5057215;28;20076;-73
2023/05/19 07:44:34;;;;;;;9.55;4.05;;;;;;;;;;5056058;28;20843;-73
2023/05/19 07:47:00;;;;;;;12.57;3.72;;;;;;;;;;5054943;28;20055;-73
2023/05/19 07:49:26;;;;;;;9.45;3.58;;;;;;;;;;5059543;28;20048;-72
2023/05/19 07:51:53;;;;;;;8.40;3.88;;;;;;;;;;5058907;28;20131;-73
2023/05/19 07:54:20;;;;;;;8.55;3.92;;;;;;;;;;5040618;28;20044;-73
2023/05/19 07:56:47;;;;;;;18.38;3.78;;;;;;;;;;5057429;28;20048;-73
2023/05/19 07:59:13;;;;;;;10.23;3.30;;;;;;;;;;5040007;28;20051;-73
2023/05/19 08:01:39;;;;;;;7.85;3.28;;;;;;;;;;5058683;28;20047;-73
2023/05/19 08:04:05;;;;;;;8.07;2.80;;;;;;;;;;5059609;28;20040;-73
2023/05/19 08:06:31;;;;;;;7.97;3.13;;;;;;;;;;5059205;28;20033;-73
2023/05/19 08:08:57;;;;;;;11.27;3.28;;;;;;;;;;5056787;28;20044;-73
2023/05/19 08:11:24;;;;;;;7.30;2.72;;;;;;;;;;5056746;28;20044;-73
2023/05/19 08:13:50;;;;;;;7.60;3.70;;;;;;;;;;5040701;28;20044;-72
2023/05/19 08:16:16;;;;;;;7.53;2.75;;;;;;;;;;5056693;28;20043;-73
2023/05/19 08:18:42;;;;;;;8.30;2.58;;;;;;;;;;5072665;28;20044;-74
2023/05/19 08:21:08;;;;;;;9.07;2.67;;;;;;;;;;5059035;28;20054;-73
2023/05/19 08:23:36;;;;;;;10.38;2.80;;;;;;;;;;5074884;28;20083;-73
2023/05/19 08:26:02;;;;;;;7.45;2.83;;;;;;;;;;5056694;28;20048;-73
2023/05/19 08:28:28;;;;;;;16.33;2.80;;;;;;;;;;5039841;28;20054;-73
2023/05/19 08:30:54;;;;;;;14.85;3.50;;;;;;;;;;5057242;28;20459;-73
2023/05/19 08:33:21;;;;;;;5.50;2.67;;;;;;;;;;5058612;28;20036;-73
2023/05/19 08:35:48;;;;;;;7.78;3.42;;;;;;;;;;5057310;28;20128;-73
2023/05/19 08:38:14;;;;;;;7.60;2.88;;;;;;;;;;5056912;28;20113;-74
2023/05/19 08:40:46;;;;;;;10.13;2.70;;;;;;;;;;5056926;28;20044;-74
2023/05/19 08:43:12;;;;;;;11.00;2.45;;;;;;;;;;5057191;28;20051;-74
2023/05/19 08:45:39;;;;;;;7.70;3.28;;;;;;;;;;5073118;28;20117;-74
2023/05/19 08:48:05;;;;;;;7.18;2.13;;;;;;;;;;5058673;28;20044;-74
2023/05/19 08:50:35;;;;;;;7.15;2.72;;;;;;;;;;5057751;28;20044;-74
2023/05/19 08:53:10;;;;;;;9.32;3.15;;;;;;;;;;5058664;28;20055;-74
2023/05/19 08:55:38;;;;;;;11.30;3.17;;;;;;;;;;5060529;28;20055;-74
2023/05/19 08:58:04;;;;;;;7.43;3.10;;;;;;;;;;5060237;28;20044;-74
2023/05/19 09:00:30;;;;;;;11.73;3.05;;;;;;;;;;5056732;28;20039;-74
2023/05/19 09:02:56;;;;;;;7.90;3.33;;;;;;;;;;5058845;28;20621;-74
2023/05/19 09:05:22;;;;;;;10.32;3.05;;;;;;;;;;5057070;28;20054;-74
2023/05/19 09:07:49;;;;;;;10.70;3.20;;;;;;;;;;5058405;28;20155;-74
2023/05/19 09:10:15;;;;;;;12.30;3.20;;;;;;;;;;5067038;28;20570;-74
2023/05/19 09:12:46;;;;;;;11.88;3.25;;;;;;;;;;5054303;28;20060;-74
2023/05/19 09:15:13;;;;;;;9.82;2.72;;;;;;;;;;5056867;28;20044;-74
2023/05/19 09:17:39;;;;;;;11.20;3.00;;;;;;;;;;5037981;28;20058;-74
2023/05/19 09:20:10;;;;;;;11.15;3.35;;;;;;;;;;5038833;28;20037;-74
2023/05/19 09:22:49;;;;;;;11.35;3.38;;;;;;;;;;5057822;28;20052;-74
2023/05/19 09:25:19;;;;;;;8.77;2.80;;;;;;;;;;5056958;28;20051;-74
2023/05/19 09:27:48;;;;;;;9.02;2.92;;;;;;;;;;5056677;28;20130;-75
2023/05/19 09:30:15;;;;;;;9.00;3.15;;;;;;;;;;5055731;28;20069;-74
2023/05/19 09:32:42;;;;;;;8.30;3.08;;;;;;;;;;5055908;28;20044;-74
2023/05/19 09:35:08;;;;;;;10.32;3.35;;;;;;;;;;5057145;28;20248;-74
2023/05/19 09:37:34;;;;;;;11.63;3.38;;;;;;;;;;5057213;28;20041;-72
2023/05/19 09:40:00;;;;;;;9.52;3.60;;;;;;;;;;5056423;28;20048;-73
2023/05/19 09:42:28;;;;;;;8.18;3.45;;;;;;;;;;5058065;28;20151;-72
2023/05/19 09:45:01;;;;;;;8.25;3.60;;;;;;;;;;5054059;28;20043;-73
2023/05/19 09:47:27;;;;;;;10.40;3.95;;;;;;;;;;5055819;28;22042;-73
2023/05/19 09:49:54;;;;;;;8.70;3.30;;;;;;;;;;5057451;28;20071;-73
2023/05/19 09:52:20;;;;;;;11.07;3.30;;;;;;;;;;5054394;28;20044;-72
2023/05/19 09:54:48;;;;;;;12.05;3.15;;;;;;;;;;5055104;28;20055;-73
2023/05/19 09:57:15;;;;;;;8.15;2.92;;;;;;;;;;5036510;28;20135;-73
2023/05/19 09:59:42;;;;;;;10.30;2.78;;;;;;;;;;5055971;28;20075;-73
2023/05/19 10:02:14;;;;;;;8.32;2.78;;;;;;;;;;5055076;28;20044;-72
2023/05/19 10:04:41;;;;;;;11.38;2.58;;;;;;;;;;5053115;28;20488;-72
2023/05/19 10:07:09;;;;;;;9.63;2.30;;;;;;;;;;5036600;28;20041;-72
2023/05/19 10:09:35;;;;;;;5.85;2.50;;;;;;;;;;5054592;28;20607;-72
2023/05/19 10:12:02;;;;;;;7.40;2.40;;;;;;;;;;5054804;28;20135;-71
2023/05/19 10:14:29;;;;;;;7.00;2.45;;;;;;;;;;5055487;28;20036;-72
2023/05/19 10:16:56;;;;;;;5.78;2.63;;;;;;;;;;5057047;28;20107;-72
2023/05/19 10:19:23;;;;;;;6.18;2.20;;;;;;;;;;5053402;28;20050;-72
2023/05/19 10:21:49;;;;;;;9.95;2.88;;;;;;;;;;5055136;28;20906;-72
2023/05/19 10:24:16;;;;;;;8.10;2.30;;;;;;;;;;5053226;28;20052;-72
2023/05/19 10:26:51;;;;;;;10.60;3.20;;;;;;;;;;5059488;28;20149;-71
2023/05/19 10:29:20;;;;;;;3.85;1.83;;;;;;;;;;5057162;28;20056;-72
2023/05/19 10:31:47;;;;;;;3.75;1.90;;;;;;;;;;5058006;28;20123;-71
2023/05/19 10:34:20;;;;;;;8.45;2.58;;;;;;;;;;5058803;28;20047;-72
2023/05/19 10:37:05;;;;;;;5.55;2.42;;;;;;;;;;5058035;28;20511;-72
2023/05/19 10:39:35;;;;;;;7.25;2.60;;;;;;;;;;5057712;28;20131;-72
2023/05/19 10:42:01;;;;;;;8.10;2.78;;;;;;;;;;5057405;28;20079;-72
2023/05/19 10:44:46;;;;;;;7.55;2.88;;;;;;;;;;5040644;28;20044;-72
2023/05/19 10:47:12;;;;;;;7.68;2.17;;;;;;;;;;5058706;28;20737;-72
2023/05/19 10:49:39;;;;;;;6.88;2.70;;;;;;;;;;5072810;28;20059;-72
2023/05/19 10:52:20;;;;;;;7.10;2.40;;;;;;;;;;5040607;28;20044;-72
2023/05/19 10:54:46;;;;;;;5.07;1.73;;;;;;;;;;5056642;28;20105;-72
2023/05/19 10:57:16;;;;;;;6.95;3.22;;;;;;;;;;5059384;28;20044;-71
2023/05/19 10:59:43;;;;;;;6.05;2.13;;;;;;;;;;5057350;28;20052;-71
2023/05/19 11:02:09;;;;;;;7.75;2.47;;;;;;;;;;5059664;28;20097;-71
2023/05/19 11:04:46;;;;;;;4.95;1.85;;;;;;;;;;5056970;28;20048;-71
2023/05/19 11:07:15;;;;;;;6.53;2.00;;;;;;;;;;5057252;28;20459;-71
2023/05/19 11:09:42;;;;;;;6.18;2.40;;;;;;;;;;5059103;28;22087;-71
2023/05/19 11:12:09;;;;;;;7.70;2.30;;;;;;;;;;5048226;28;20078;-71
2023/05/19 11:14:36;;;;;;;4.05;2.13;;;;;;;;;;5056704;28;20048;-71
2023/05/19 11:17:04;;;;;;;7.97;2.10;;;;;;;;;;5040978;28;20048;-72
2023/05/19 11:19:31;;;;;;;4.00;2.05;;;;;;;;;;5056390;28;20591;-71
2023/05/19 11:22:07;;;;;;;7.72;2.83;;;;;;;;;;5057400;28;20044;-72
2023/05/19 11:24:34;;;;;;;5.28;2.28;;;;;;;;;;5076036;27;20114;-73
2023/05/19 11:27:20;;;;;;;6.60;2.33;;;;;;;;;;5058812;28;20087;-73
2023/05/19 11:29:50;;;;;;;5.97;2.47;;;;;;;;;;5058459;28;20056;-73
2023/05/19 11:32:20;;;;;;;7.70;2.07;;;;;;;;;;5057893;28;20055;-75
2023/05/19 11:34:48;;;;;;;9.18;2.67;;;;;;;;;;5040100;28;20107;-73
2023/05/19 11:37:14;;;;;;;7.45;2.22;;;;;;;;;;5056546;28;20052;-74
2023/05/19 11:39:45;;;;;;;8.02;2.90;;;;;;;;;;5054971;28;20588;-73
2023/05/19 11:42:11;;;;;;;6.32;2.72;;;;;;;;;;5073351;28;20044;-74
2023/05/19 11:44:39;;;;;;;10.90;2.83;;;;;;;;;;5057901;28;20059;-72
2023/05/19 11:47:06;;;;;;;5.22;2.33;;;;;;;;;;5058747;28;20064;-72
2023/05/19 11:49:32;;;;;;;6.50;2.20;;;;;;;;;;5073761;27;20039;-72
2023/05/19 11:52:01;;;;;;;11.73;3.00;;;;;;;;;;5060494;28;20476;-72
2023/05/19 11:54:35;;;;;;;8.05;2.80;;;;;;;;;;5058579;28;20047;-72
2023/05/19 11:57:02;;;;;;;7.68;2.80;;;;;;;;;;5058977;28;20063;-72
2023/05/19 11:59:32;;;;;;;6.97;2.35;;;;;;;;;;5058205;28;20045;-72
2023/05/19 12:02:01;;;;;;;11.30;2.80;;;;;;;;;;5058724;28;20036;-72
2023/05/19 12:04:27;;;;;;;10.07;2.97;;;;;;;;;;5061887;28;20448;-72
2023/05/19 12:06:53;;;;;;;8.45;3.10;;;;;;;;;;5058536;28;20040;-72
2023/05/19 12:09:21;;;;;;;12.07;2.90;;;;;;;;;;5064752;28;20036;-72
2023/05/19 12:11:47;;;;;;;7.65;3.00;;;;;;;;;;5061880;28;20105;-72
2023/05/19 12:14:16;;;;;;;9.65;3.08;;;;;;;;;;5062559;28;20054;-72
2023/05/19 12:16:43;;;;;;;11.20;3.70;;;;;;;;;;5078666;28;20503;-72
2023/05/19 12:19:09;;;;;;;11.52;3.40;;;;;;;;;;5060445;28;20050;-72
2023/05/19 12:21:36;;;;;;;14.55;3.80;;;;;;;;;;5066823;28;20066;-71
2023/05/19 12:24:02;;;;;;;12.70;3.58;;;;;;;;;;5060344;28;20051;-72
2023/05/19 12:26:28;;;;;;;15.05;4.38;;;;;;;;;;5057592;28;20168;-72
2023/05/19 12:28:54;;;;;;;9.40;3.80;;;;;;;;;;5058478;28;20108;-73
2023/05/19 12:31:24;;;;;;;12.57;4.70;;;;;;;;;;5064180;28;20298;-80
2023/05/19 12:33:53;;;;;;;10.90;3.65;;;;;;;;;;5058993;28;21995;-77
2023/05/19 12:36:19;;;;;;;10.35;3.80;;;;;;;;;;5044311;28;20121;-77
2023/05/19 12:38:52;;;;;;;14.73;4.40;;;;;;;;;;5071122;28;20106;-77
2023/05/19 12:41:19;;;;;;;12.85;4.40;;;;;;;;;;5061403;28;20074;-77
2023/05/19 12:43:45;;;;;;;14.70;4.57;;;;;;;;;;5059653;28;20072;-77
2023/05/19 12:46:11;;;;;;;14.50;3.83;;;;;;;;;;5026068;28;20105;-79
2023/05/19 12:48:42;;;;;;;9.77;3.83;;;;;;;;;;5059048;28;20104;-78
2023/05/19 12:51:08;;;;;;;10.48;4.20;;;;;;;;;;5057952;28;20089;-77
2023/05/19 12:53:37;;;;;;;12.02;3.80;;;;;;;;;;5056206;28;20163;-77
2023/05/19 12:56:23;;;;;;;15.35;4.32;;;;;;;;;;5060893;28;20169;-78
2023/05/19 12:58:55;;;;;;;12.80;3.67;;;;;;;;;;5066202;28;20052;-81
2023/05/19 13:01:22;;;;;;;12.18;4.30;;;;;;;;;;5057453;28;20158;-80
2023/05/19 13:03:48;;;;;;;10.77;3.60;;;;;;;;;;5075412;28;20118;-81
2023/05/19 13:06:15;;;;;;;11.43;4.30;;;;;;;;;;5089268;28;20036;-81
2023/05/19 13:08:41;;;;;;;12.05;4.35;;;;;;;;;;5072948;28;20040;-81
2023/05/19 13:11:07;;;;;;;17.98;4.35;;;;;;;;;;5072950;28;20075;-81
2023/05/19 13:13:33;;;;;;;9.88;4.07;;;;;;;;;;5054110;28;20062;-81
2023/05/19 13:15:59;;;;;;;11.45;4.03;;;;;;;;;;5071635;28;20048;-81
2023/05/19 13:18:26;;;;;;;10.95;3.97;;;;;;;;;;5068242;28;20044;-81
2023/05/19 13:20:53;;;;;;;13.82;4.70;;;;;;;;;;5056883;28;20040;-80
2023/05/19 13:23:19;;;;;;;12.95;3.95;;;;;;;;;;5071516;28;20044;-80
2023/05/19 13:25:45;;;;;;;14.20;4.10;;;;;;;;;;5060161;28;20157;-80
2023/05/19 13:28:14;;;;;;;14.15;4.00;;;;;;;;;;5074718;28;20596;-80
2023/05/19 13:30:40;;;;;;;15.35;3.90;;;;;;;;;;5073411;28;20096;-80
2023/05/19 13:33:07;;;;;;;14.25;3.45;;;;;;;;;;5069535;28;20067;-80
2023/05/19 13:35:35;;;;;;;10.15;3.40;;;;;;;;;;5066942;28;20072;-80
2023/05/19 13:38:05;;;;;;;10.27;3.20;;;;;;;;;;5066694;28;20557;-81
2023/05/19 13:40:33;;;;;;;7.57;2.83;;;;;;;;;;5068955;28;20044;-81
2023/05/19 13:42:59;;;;;;;11.98;3.92;;;;;;;;;;5049916;28;20090;-81
2023/05/19 13:45:25;;;;;;;12.50;3.78;;;;;;;;;;5085243;28;20040;-80
2023/05/19 13:47:51;;;;;;;7.85;3.50;;;;;;;;;;5065889;28;20586;-80
2023/05/19 13:50:17;;;;;;;9.27;3.15;;;;;;;;;;5066172;28;20157;-79
2023/05/19 13:52:44;;;;;;;13.35;3.03;;;;;;;;;;5080481;28;20177;-79
2023/05/19 13:55:10;;;;;;;8.52;3.13;;;;;;;;;;5048198;28;20086;-79
2023/05/19 13:57:37;;;;;;;10.38;3.63;;;;;;;;;;5050013;28;20066;-79
2023/05/19 14:00:04;;;;;;;11.43;3.90;;;;;;;;;;5054841;28;20084;-79
2023/05/19 14:02:30;;;;;;;7.57;3.00;;;;;;;;;;5066924;28;20403;-79
2023/05/19 14:04:56;;;;;;;11.38;2.80;;;;;;;;;;5045100;28;20046;-78
2023/05/19 14:07:23;;;;;;;6.93;2.78;;;;;;;;;;5062007;28;20049;-79
2023/05/19 14:09:49;;;;;;;6.90;2.85;;;;;;;;;;5047006;28;20038;-79
2023/05/19 14:12:16;;;;;;;5.80;2.53;;;;;;;;;;5057892;28;21834;-75
2023/05/19 14:14:42;;;;;;;6.88;3.22;;;;;;;;;;5058463;28;20055;-77
2023/05/19 14:17:08;;;;;;;7.70;2.70;;;;;;;;;;5058429;28;20087;-78
2023/05/19 14:19:34;;;;;;;13.85;3.20;;;;;;;;;;5057765;28;20506;-78
2023/05/19 14:22:00;;;;;;;7.07;2.70;;;;;;;;;;5058728;28;20472;-77
2023/05/19 14:24:26;;;;;;;10.40;2.70;;;;;;;;;;5058869;28;20090;-78
2023/05/19 14:26:52;;;;;;;13.48;3.58;;;;;;;;;;5058355;28;20400;-76
2023/05/19 14:29:19;;;;;;;12.38;3.28;;;;;;;;;;5057681;28;20048;-77
2023/05/19 14:31:45;;;;;;;10.07;3.78;;;;;;;;;;5063913;28;20032;-83
2023/05/19 14:34:11;;;;;;;7.40;2.97;;;;;;;;;;5043729;28;20036;-83